Time;durP1;ratioP1;P1;durP2;ratioP2;P2;SDS_P1;SDS_P2;PMS_P1;PMS_P2;Temp;Humidity;BMP_temperature;BMP_pressure;BME280_temperature;BME280_humidity;BME280_pressure;Samples;Min_cycle;Max_cycle;Signal;HPM_P1;HPM_P2
2020/12/13 00:01:25;;;;;;;21.20;12.07;;;;;;;;;;5053961;28;20033;-79
2020/12/13 00:03:50;;;;;;;22.07;12.10;;;;;;;;;;5063780;28;20110;-79
2020/12/13 00:06:16;;;;;;;19.17;12.30;;;;;;;;;;5057016;28;20044;-79
2020/12/13 00:08:41;;;;;;;18.27;11.67;;;;;;;;;;5060747;28;20020;-79
2020/12/13 00:11:06;;;;;;;19.77;11.37;;;;;;;;;;5063434;28;20024;-79
2020/12/13 00:13:31;;;;;;;21.70;11.33;;;;;;;;;;5061820;28;20017;-79
2020/12/13 00:15:56;;;;;;;21.70;11.70;;;;;;;;;;5066064;28;20016;-79
2020/12/13 00:18:21;;;;;;;21.47;12.10;;;;;;;;;;5069894;28;20019;-79
2020/12/13 00:20:47;;;;;;;23.33;12.40;;;;;;;;;;5060217;28;20036;-79
2020/12/13 00:23:15;;;;;;;17.07;10.80;;;;;;;;;;5064242;28;20025;-80
2020/12/13 00:25:40;;;;;;;21.00;12.27;;;;;;;;;;5075465;28;20028;-79
2020/12/13 00:28:05;;;;;;;19.93;11.53;;;;;;;;;;5060957;28;20028;-80
2020/12/13 00:30:30;;;;;;;17.83;11.20;;;;;;;;;;5071080;28;20471;-79
2020/12/13 00:32:56;;;;;;;19.97;11.10;;;;;;;;;;5059265;28;20028;-79
2020/12/13 00:35:21;;;;;;;18.77;10.77;;;;;;;;;;5062476;28;20097;-79
2020/12/13 00:37:46;;;;;;;23.97;14.23;;;;;;;;;;5055679;28;20512;-79
2020/12/13 00:40:11;;;;;;;26.83;12.83;;;;;;;;;;5062810;28;20020;-79
2020/12/13 00:42:36;;;;;;;23.33;14.00;;;;;;;;;;5056710;28;20096;-79
2020/12/13 00:45:02;;;;;;;23.27;13.63;;;;;;;;;;5063781;28;20120;-79
2020/12/13 00:47:27;;;;;;;24.17;13.53;;;;;;;;;;5057296;28;20112;-79
2020/12/13 00:49:52;;;;;;;23.07;14.23;;;;;;;;;;5065805;28;20365;-79
2020/12/13 00:52:17;;;;;;;20.23;11.93;;;;;;;;;;5070720;28;20066;-79
2020/12/13 00:54:43;;;;;;;23.60;12.50;;;;;;;;;;5059449;28;20073;-79
2020/12/13 00:57:08;;;;;;;28.17;12.37;;;;;;;;;;5057076;28;20028;-79
2020/12/13 00:59:33;;;;;;;22.37;12.87;;;;;;;;;;5053363;28;20757;-79
2020/12/13 01:01:58;;;;;;;26.50;13.63;;;;;;;;;;5059539;28;20058;-80
2020/12/13 01:04:23;;;;;;;21.97;12.20;;;;;;;;;;5066516;28;20078;-79
2020/12/13 01:06:49;;;;;;;24.53;12.77;;;;;;;;;;5078071;28;20024;-79
2020/12/13 01:09:14;;;;;;;24.37;13.20;;;;;;;;;;5058799;28;20595;-79
2020/12/13 01:11:39;;;;;;;22.73;13.10;;;;;;;;;;5055156;28;20017;-79
2020/12/13 01:14:05;;;;;;;27.70;12.77;;;;;;;;;;5073125;28;20032;-79
2020/12/13 01:16:30;;;;;;;21.97;11.77;;;;;;;;;;5058198;28;20013;-80
2020/12/13 01:18:57;;;;;;;21.23;11.63;;;;;;;;;;5059300;28;20017;-79
2020/12/13 01:21:26;;;;;;;21.60;12.00;;;;;;;;;;5063822;28;20116;-79
2020/12/13 01:23:52;;;;;;;23.33;10.53;;;;;;;;;;5059524;28;20461;-79
2020/12/13 01:26:18;;;;;;;20.83;10.03;;;;;;;;;;5066395;28;20055;-80
2020/12/13 01:28:44;;;;;;;16.57;10.70;;;;;;;;;;5079104;28;20533;-79
2020/12/13 01:31:11;;;;;;;19.30;10.73;;;;;;;;;;5059368;28;20112;-79
2020/12/13 01:33:37;;;;;;;18.67;10.20;;;;;;;;;;5057065;28;20468;-79
2020/12/13 01:36:02;;;;;;;17.33;9.77;;;;;;;;;;5063276;28;20111;-79
2020/12/13 01:38:27;;;;;;;18.63;10.13;;;;;;;;;;5065143;28;20059;-79
2020/12/13 01:40:56;;;;;;;17.93;9.97;;;;;;;;;;5060331;28;20625;-79
2020/12/13 01:43:21;;;;;;;18.70;10.87;;;;;;;;;;5065870;28;20048;-79
2020/12/13 01:45:47;;;;;;;19.33;10.07;;;;;;;;;;5066174;28;20102;-79
2020/12/13 01:48:12;;;;;;;17.80;9.17;;;;;;;;;;5070051;28;20033;-79
2020/12/13 01:53:24;;;;;;;17.10;8.90;;;;;;;;;;5066287;28;20079;-79
2020/12/13 01:55:50;;;;;;;19.83;9.83;;;;;;;;;;5062500;28;20483;-79
2020/12/13 01:58:30;;;;;;;18.53;8.87;;;;;;;;;;5059531;28;20108;-80
2020/12/13 02:00:56;;;;;;;17.20;9.83;;;;;;;;;;5061123;28;20029;-79
2020/12/13 02:03:22;;;;;;;21.80;9.70;;;;;;;;;;5072605;28;20028;-79
2020/12/13 02:05:54;;;;;;;18.07;9.37;;;;;;;;;;5063251;28;20096;-79
2020/12/13 02:08:21;;;;;;;23.00;10.18;;;;;;;;;;5096096;28;20039;-79
2020/12/13 02:10:46;;;;;;;21.80;11.10;;;;;;;;;;5077682;28;20033;-79
2020/12/13 02:13:11;;;;;;;24.03;11.67;;;;;;;;;;5058899;28;20678;-79
2020/12/13 02:15:37;;;;;;;24.20;11.70;;;;;;;;;;5070652;28;20020;-79
2020/12/13 02:18:02;;;;;;;28.57;11.57;;;;;;;;;;5062272;28;20090;-79
2020/12/13 02:20:27;;;;;;;31.27;11.97;;;;;;;;;;5059490;28;20106;-79
2020/12/13 02:22:52;;;;;;;25.20;13.80;;;;;;;;;;5062624;28;20112;-79
2020/12/13 02:25:21;;;;;;;22.77;11.70;;;;;;;;;;5066446;28;20475;-79
2020/12/13 02:27:46;;;;;;;25.20;12.03;;;;;;;;;;5061344;28;20075;-79
2020/12/13 02:30:11;;;;;;;30.83;13.03;;;;;;;;;;5077189;28;20029;-79
2020/12/13 02:32:37;;;;;;;32.63;12.73;;;;;;;;;;5070947;28;20467;-79
2020/12/13 02:35:03;;;;;;;29.47;12.93;;;;;;;;;;5065363;28;20052;-79
2020/12/13 02:37:29;;;;;;;22.97;11.10;;;;;;;;;;5059453;28;20052;-79
2020/12/13 02:39:54;;;;;;;24.43;11.37;;;;;;;;;;5067068;28;20518;-79
2020/12/13 02:42:19;;;;;;;29.03;11.40;;;;;;;;;;5060638;28;20041;-79
2020/12/13 02:44:44;;;;;;;25.80;12.23;;;;;;;;;;5060115;28;20024;-79
2020/12/13 02:47:09;;;;;;;26.87;12.30;;;;;;;;;;5061620;28;20103;-79
2020/12/13 02:49:35;;;;;;;28.93;10.53;;;;;;;;;;5067389;28;20051;-79
2020/12/13 02:52:00;;;;;;;26.27;11.40;;;;;;;;;;5067667;28;20472;-79
2020/12/13 02:54:26;;;;;;;25.63;10.53;;;;;;;;;;5078737;28;20023;-79
2020/12/13 02:56:51;;;;;;;25.83;11.50;;;;;;;;;;5062673;28;20025;-79
2020/12/13 02:59:16;;;;;;;18.13;9.57;;;;;;;;;;5062850;28;20021;-79
2020/12/13 03:01:41;;;;;;;36.23;10.90;;;;;;;;;;5067970;28;20029;-79
2020/12/13 03:04:06;;;;;;;27.03;10.47;;;;;;;;;;5062019;28;20028;-79
2020/12/13 03:06:31;;;;;;;24.07;9.93;;;;;;;;;;5064559;28;20024;-79
2020/12/13 03:08:57;;;;;;;24.47;9.60;;;;;;;;;;5068506;28;20033;-79
2020/12/13 03:11:22;;;;;;;21.60;8.60;;;;;;;;;;5069251;28;20042;-79
2020/12/13 03:13:48;;;;;;;21.83;9.63;;;;;;;;;;5059901;28;20028;-79
2020/12/13 03:16:14;;;;;;;22.30;8.57;;;;;;;;;;5075455;28;20463;-79
2020/12/13 03:18:39;;;;;;;28.47;8.60;;;;;;;;;;5058503;28;20049;-79
2020/12/13 03:21:04;;;;;;;27.40;9.03;;;;;;;;;;5057451;28;20036;-79
2020/12/13 03:23:29;;;;;;;17.33;8.83;;;;;;;;;;5073474;28;20020;-79
2020/12/13 03:25:55;;;;;;;27.13;8.87;;;;;;;;;;5065636;28;20036;-79
2020/12/13 03:28:20;;;;;;;25.57;8.90;;;;;;;;;;5080225;28;20480;-79
2020/12/13 03:30:45;;;;;;;20.50;7.83;;;;;;;;;;5059370;28;20029;-79
2020/12/13 03:33:10;;;;;;;18.57;8.20;;;;;;;;;;5067188;28;20769;-79
2020/12/13 03:35:35;;;;;;;18.40;7.60;;;;;;;;;;5065974;28;20012;-79
2020/12/13 03:38:00;;;;;;;22.80;7.83;;;;;;;;;;5064622;28;20102;-79
2020/12/13 03:40:26;;;;;;;25.13;8.07;;;;;;;;;;5064269;28;20511;-79
2020/12/13 03:42:51;;;;;;;18.27;7.70;;;;;;;;;;5059581;28;20062;-79
2020/12/13 03:45:17;;;;;;;21.93;7.87;;;;;;;;;;5095358;28;20043;-79
2020/12/13 03:47:42;;;;;;;15.00;6.50;;;;;;;;;;5077940;28;20487;-79
2020/12/13 03:50:07;;;;;;;21.20;7.10;;;;;;;;;;5076849;28;20020;-79
2020/12/13 03:52:32;;;;;;;32.80;7.77;;;;;;;;;;5062240;28;20061;-79
2020/12/13 03:54:58;;;;;;;15.73;6.43;;;;;;;;;;5058427;28;20025;-79
2020/12/13 03:57:23;;;;;;;17.47;6.07;;;;;;;;;;5065884;28;20012;-79
2020/12/13 03:59:48;;;;;;;15.97;5.60;;;;;;;;;;5058605;28;20025;-79
2020/12/13 04:02:13;;;;;;;13.30;5.23;;;;;;;;;;5062955;28;20365;-79
2020/12/13 04:04:38;;;;;;;20.07;5.57;;;;;;;;;;5084209;28;20028;-80
2020/12/13 04:07:04;;;;;;;19.00;6.20;;;;;;;;;;5065308;28;20182;-79
2020/12/13 04:09:29;;;;;;;23.10;6.00;;;;;;;;;;5068810;28;20467;-79
2020/12/13 04:11:54;;;;;;;22.10;6.53;;;;;;;;;;5069205;28;20025;-79
2020/12/13 04:14:19;;;;;;;14.40;5.73;;;;;;;;;;5093371;28;20025;-79
2020/12/13 04:16:44;;;;;;;15.87;6.03;;;;;;;;;;5059727;28;20090;-79
2020/12/13 04:19:10;;;;;;;21.10;6.23;;;;;;;;;;5068132;28;20044;-79
2020/12/13 04:21:35;;;;;;;20.10;6.13;;;;;;;;;;5064908;28;20478;-79
2020/12/13 04:24:00;;;;;;;16.23;5.70;;;;;;;;;;5072165;28;20026;-79
2020/12/13 04:26:26;;;;;;;16.20;5.03;;;;;;;;;;5061962;28;20107;-79
2020/12/13 04:28:51;;;;;;;19.70;5.73;;;;;;;;;;5059343;28;20029;-79
2020/12/13 04:31:16;;;;;;;20.60;5.43;;;;;;;;;;5075733;28;20099;-79
2020/12/13 04:33:41;;;;;;;13.30;4.60;;;;;;;;;;5058974;28;20013;-79
2020/12/13 04:36:06;;;;;;;20.47;4.67;;;;;;;;;;5060545;28;20028;-79
2020/12/13 04:38:32;;;;;;;22.13;4.57;;;;;;;;;;5067016;28;20050;-79
2020/12/13 04:40:58;;;;;;;15.20;4.60;;;;;;;;;;5061853;28;20027;-79
2020/12/13 04:43:23;;;;;;;12.53;4.20;;;;;;;;;;5056321;28;20467;-79
2020/12/13 04:45:48;;;;;;;17.97;4.73;;;;;;;;;;5099245;28;20021;-79
2020/12/13 04:48:15;;;;;;;11.70;4.77;;;;;;;;;;5061103;28;20024;-79
2020/12/13 04:50:40;;;;;;;15.83;4.67;;;;;;;;;;5061488;28;20028;-79
2020/12/13 04:53:09;;;;;;;22.97;5.13;;;;;;;;;;5073715;28;20025;-79
2020/12/13 04:55:38;;;;;;;16.63;4.70;;;;;;;;;;5071991;28;20025;-79
2020/12/13 04:58:03;;;;;;;24.60;5.60;;;;;;;;;;5061488;28;20417;-79
2020/12/13 05:00:29;;;;;;;14.57;5.50;;;;;;;;;;5083788;28;20086;-79
2020/12/13 05:02:56;;;;;;;23.33;4.80;;;;;;;;;;5069317;28;20032;-79
2020/12/13 05:05:21;;;;;;;16.40;4.30;;;;;;;;;;5059198;28;20024;-79
2020/12/13 05:07:46;;;;;;;15.43;5.17;;;;;;;;;;5079976;28;20077;-79
2020/12/13 05:10:12;;;;;;;13.97;4.53;;;;;;;;;;5053810;28;20496;-79
2020/12/13 05:12:37;;;;;;;17.43;4.77;;;;;;;;;;5065700;28;20025;-79
2020/12/13 05:15:03;;;;;;;14.03;4.47;;;;;;;;;;5084054;28;20387;-79
2020/12/13 05:17:28;;;;;;;18.87;4.30;;;;;;;;;;5071855;28;20040;-79
2020/12/13 05:19:54;;;;;;;20.80;4.17;;;;;;;;;;5065906;28;20033;-79
2020/12/13 05:22:20;;;;;;;16.60;5.63;;;;;;;;;;5067665;28;20032;-79
2020/12/13 05:24:45;;;;;;;18.53;4.57;;;;;;;;;;5077507;28;20017;-79
2020/12/13 05:27:10;;;;;;;17.73;4.77;;;;;;;;;;5104907;28;20023;-79
2020/12/13 05:29:38;;;;;;;20.20;4.67;;;;;;;;;;5078832;28;20433;-79
2020/12/13 05:32:15;;;;;;;18.80;5.03;;;;;;;;;;5068297;28;20027;-79
2020/12/13 05:34:42;;;;;;;19.03;4.43;;;;;;;;;;5070341;28;20516;-79
2020/12/13 05:37:13;;;;;;;16.33;4.20;;;;;;;;;;5075495;28;20027;-79
2020/12/13 05:39:39;;;;;;;12.90;3.57;;;;;;;;;;5100918;28;20021;-79
2020/12/13 05:42:04;;;;;;;13.30;4.60;;;;;;;;;;5072403;28;20488;-79
2020/12/13 05:47:32;;;;;;;17.17;4.47;;;;;;;;;;5064774;28;20017;-79
2020/12/13 05:50:54;;;;;;;12.07;4.17;;;;;;;;;;5067786;28;20029;-79
2020/12/13 05:52:49;;;;;;;13.83;4.43;;;;;;;;;;5065942;28;20033;-79
2020/12/13 05:55:14;;;;;;;17.13;4.80;;;;;;;;;;5078156;28;20021;-79
2020/12/13 05:57:40;;;;;;;16.67;4.03;;;;;;;;;;5074012;28;20024;-79
2020/12/13 06:00:06;;;;;;;17.97;4.80;;;;;;;;;;5065052;28;20025;-79
2020/12/13 06:02:31;;;;;;;16.53;4.50;;;;;;;;;;5066768;28;20089;-79
2020/12/13 06:05:01;;;;;;;13.43;4.27;;;;;;;;;;5081273;28;20024;-79
2020/12/13 06:07:29;;;;;;;16.33;4.70;;;;;;;;;;5062906;28;20017;-79
2020/12/13 06:09:57;;;;;;;13.93;4.67;;;;;;;;;;5067722;28;20098;-79
2020/12/13 06:12:25;;;;;;;18.63;5.03;;;;;;;;;;5072076;28;20081;-79
2020/12/13 06:14:53;;;;;;;12.03;4.07;;;;;;;;;;5065345;28;20028;-79
2020/12/13 06:17:19;;;;;;;16.47;4.20;;;;;;;;;;5080905;28;20028;-79
2020/12/13 06:19:44;;;;;;;16.27;4.53;;;;;;;;;;5064961;28;20497;-79
2020/12/13 06:22:12;;;;;;;16.93;5.03;;;;;;;;;;5062682;28;20021;-79
2020/12/13 06:24:38;;;;;;;22.03;4.87;;;;;;;;;;5080536;28;20052;-78
2020/12/13 06:27:03;;;;;;;15.73;4.33;;;;;;;;;;5060970;28;20476;-79
2020/12/13 06:29:29;;;;;;;23.03;4.67;;;;;;;;;;5061542;28;20082;-79
2020/12/13 06:31:55;;;;;;;17.37;4.60;;;;;;;;;;5064456;28;20052;-79
2020/12/13 06:34:20;;;;;;;12.83;4.40;;;;;;;;;;5068789;28;20013;-79
2020/12/13 06:36:46;;;;;;;19.67;4.63;;;;;;;;;;5063510;28;20047;-79
2020/12/13 06:39:14;;;;;;;12.87;4.53;;;;;;;;;;5060171;28;20104;-79
2020/12/13 06:41:41;;;;;;;12.47;3.90;;;;;;;;;;5066944;28;20073;-79
2020/12/13 06:44:07;;;;;;;17.43;4.83;;;;;;;;;;5075069;28;20020;-79
2020/12/13 06:46:35;;;;;;;19.83;4.97;;;;;;;;;;5102201;28;20631;-79
2020/12/13 06:49:00;;;;;;;16.33;4.23;;;;;;;;;;5059002;28;20039;-79
2020/12/13 06:51:28;;;;;;;15.23;4.53;;;;;;;;;;5061288;28;20021;-79
2020/12/13 06:53:54;;;;;;;15.97;4.43;;;;;;;;;;5062995;28;20380;-79
2020/12/13 06:56:19;;;;;;;16.40;4.40;;;;;;;;;;5060055;28;20104;-79
2020/12/13 06:58:46;;;;;;;15.40;4.70;;;;;;;;;;5068236;28;20074;-79
2020/12/13 07:01:19;;;;;;;12.83;4.20;;;;;;;;;;5077990;28;20024;-79
2020/12/13 07:03:45;;;;;;;18.87;5.47;;;;;;;;;;5064498;28;20354;-79
2020/12/13 07:06:17;;;;;;;21.63;6.53;;;;;;;;;;5070418;28;20022;-79
2020/12/13 07:08:44;;;;;;;23.58;8.25;;;;;;;;;;5068109;28;20028;-78
2020/12/13 07:11:10;;;;;;;14.40;6.13;;;;;;;;;;5062572;28;20050;-79
2020/12/13 07:13:35;;;;;;;14.60;5.67;;;;;;;;;;5082199;28;20111;-79
2020/12/13 07:18:30;;;;;;;12.33;4.27;;;;;;;;;;5062205;28;20029;-79
2020/12/13 07:20:55;;;;;;;17.43;4.27;;;;;;;;;;5063576;28;20108;-79
2020/12/13 07:23:21;;;;;;;17.20;4.90;;;;;;;;;;5067736;28;20041;-79
2020/12/13 07:25:46;;;;;;;15.83;4.50;;;;;;;;;;5065216;28;20031;-79
2020/12/13 07:28:11;;;;;;;12.37;4.47;;;;;;;;;;5070143;28;20024;-79
2020/12/13 07:30:37;;;;;;;14.77;4.73;;;;;;;;;;5059239;28;20616;-79
2020/12/13 07:33:02;;;;;;;20.73;4.70;;;;;;;;;;5056034;28;20029;-80
2020/12/13 07:35:27;;;;;;;12.50;4.27;;;;;;;;;;5068481;28;20020;-79
2020/12/13 07:37:53;;;;;;;12.90;4.30;;;;;;;;;;5060170;28;20024;-80
2020/12/13 07:40:19;;;;;;;19.27;4.67;;;;;;;;;;5063203;28;20024;-78
2020/12/13 07:42:57;;;;;;;21.30;4.67;;;;;;;;;;5063333;28;20496;-79
2020/12/13 07:45:23;;;;;;;16.83;5.90;;;;;;;;;;5058987;28;20016;-79
2020/12/13 07:48:00;;;;;;;13.63;5.33;;;;;;;;;;5067959;28;20025;-78
2020/12/13 07:50:25;;;;;;;16.63;5.10;;;;;;;;;;5063582;28;20103;-78
2020/12/13 07:52:51;;;;;;;15.63;5.13;;;;;;;;;;5097393;28;20665;-78
2020/12/13 07:55:16;;;;;;;14.23;5.03;;;;;;;;;;5059089;28;20019;-77
2020/12/13 07:57:46;;;;;;;20.10;5.60;;;;;;;;;;5063495;28;20410;-78
2020/12/13 08:00:11;;;;;;;17.90;4.70;;;;;;;;;;5066620;28;20024;-78
2020/12/13 08:02:36;;;;;;;18.13;5.10;;;;;;;;;;5069168;28;20035;-78
2020/12/13 08:05:02;;;;;;;17.83;5.97;;;;;;;;;;5059194;28;20567;-78
2020/12/13 08:07:28;;;;;;;15.13;4.67;;;;;;;;;;5063933;28;20018;-78
2020/12/13 08:09:54;;;;;;;13.07;5.13;;;;;;;;;;5064736;28;20029;-78
2020/12/13 08:12:21;;;;;;;14.27;4.60;;;;;;;;;;5063555;28;20052;-78
2020/12/13 08:14:47;;;;;;;15.47;4.63;;;;;;;;;;5062890;28;20016;-78
2020/12/13 08:17:16;;;;;;;18.80;4.90;;;;;;;;;;5076720;28;20024;-78
2020/12/13 08:19:42;;;;;;;16.10;4.30;;;;;;;;;;5061954;28;20469;-78
2020/12/13 08:22:08;;;;;;;10.63;4.23;;;;;;;;;;5067053;28;20154;-78
2020/12/13 08:24:33;;;;;;;17.77;5.03;;;;;;;;;;5062751;28;20041;-78
2020/12/13 08:26:59;;;;;;;18.20;4.23;;;;;;;;;;5061418;28;20377;-78
2020/12/13 08:29:24;;;;;;;16.17;4.40;;;;;;;;;;5063247;28;20036;-78
2020/12/13 08:31:50;;;;;;;16.20;4.37;;;;;;;;;;5077597;28;20021;-77
2020/12/13 08:34:21;;;;;;;16.10;5.03;;;;;;;;;;5067560;28;20029;-77
2020/12/13 08:36:50;;;;;;;13.13;4.83;;;;;;;;;;5062685;28;20021;-77
2020/12/13 08:39:15;;;;;;;18.00;4.93;;;;;;;;;;5073332;28;20021;-78
2020/12/13 08:41:45;;;;;;;16.33;5.00;;;;;;;;;;5065489;28;20869;-79
2020/12/13 08:44:29;;;;;;;11.97;4.20;;;;;;;;;;5072392;28;20464;-79
2020/12/13 08:46:56;;;;;;;16.00;4.83;;;;;;;;;;5068864;28;20032;-79
2020/12/13 08:49:25;;;;;;;12.47;4.70;;;;;;;;;;5058412;28;20025;-78
2020/12/13 08:51:51;;;;;;;21.87;5.00;;;;;;;;;;5070641;28;20074;-79
2020/12/13 08:54:16;;;;;;;14.77;4.43;;;;;;;;;;5075196;28;20393;-79
2020/12/13 08:56:42;;;;;;;17.53;4.50;;;;;;;;;;5078433;28;20029;-78
2020/12/13 08:59:07;;;;;;;12.67;4.50;;;;;;;;;;5074809;28;20024;-78
2020/12/13 09:04:15;;;;;;;19.33;4.60;;;;;;;;;;5074292;28;20384;-79
2020/12/13 09:06:40;;;;;;;21.80;5.47;;;;;;;;;;5057290;28;20036;-78
2020/12/13 09:09:07;;;;;;;14.13;4.63;;;;;;;;;;5074734;28;20016;-78
2020/12/13 09:11:32;;;;;;;16.97;3.70;;;;;;;;;;5061891;28;20025;-79
2020/12/13 09:13:57;;;;;;;16.13;4.47;;;;;;;;;;5090549;28;21299;-79
2020/12/13 09:16:33;;;;;;;18.00;4.53;;;;;;;;;;5071224;28;20380;-79
2020/12/13 09:19:01;;;;;;;15.33;4.83;;;;;;;;;;5062235;28;20017;-79
2020/12/13 09:21:39;;;;;;;16.10;4.37;;;;;;;;;;5059753;28;20052;-78
2020/12/13 09:24:04;;;;;;;17.07;4.53;;;;;;;;;;5065713;28;20804;-79
2020/12/13 09:26:30;;;;;;;16.23;5.03;;;;;;;;;;5057787;28;20043;-79
2020/12/13 09:28:55;;;;;;;14.63;4.30;;;;;;;;;;5059576;28;20028;-78
2020/12/13 09:31:20;;;;;;;13.90;5.00;;;;;;;;;;5066041;28;20028;-78
2020/12/13 09:33:45;;;;;;;19.47;4.60;;;;;;;;;;5059157;28;20464;-79
2020/12/13 09:36:13;;;;;;;16.00;4.60;;;;;;;;;;5067005;28;20028;-78
2020/12/13 09:38:38;;;;;;;21.67;4.67;;;;;;;;;;5072883;28;20025;-78
2020/12/13 09:41:04;;;;;;;15.90;5.40;;;;;;;;;;5062753;28;20059;-79
2020/12/13 09:43:29;;;;;;;13.23;4.33;;;;;;;;;;5072957;28;20430;-78
2020/12/13 09:45:54;;;;;;;12.07;3.60;;;;;;;;;;5075221;28;20016;-79
2020/12/13 09:48:20;;;;;;;16.43;3.40;;;;;;;;;;5060300;28;20086;-79
2020/12/13 09:50:45;;;;;;;5.47;1.88;;;;;;;;;;5069174;28;20063;-79
2020/12/13 09:53:10;;;;;;;17.98;3.47;;;;;;;;;;5063597;28;20108;-79
2020/12/13 09:55:35;;;;;;;10.45;2.50;;;;;;;;;;5066206;28;20348;-79
2020/12/13 09:58:00;;;;;;;10.70;2.42;;;;;;;;;;5079738;28;20035;-79
2020/12/13 10:00:26;;;;;;;19.48;3.22;;;;;;;;;;5060887;28;20076;-79
2020/12/13 10:02:52;;;;;;;7.93;3.00;;;;;;;;;;5069423;28;20143;-79
2020/12/13 10:05:29;;;;;;;10.65;2.92;;;;;;;;;;5074594;28;20025;-79
2020/12/13 10:10:41;;;;;;;9.25;2.63;;;;;;;;;;5048391;28;20392;-80
2020/12/13 10:13:06;;;;;;;10.02;2.63;;;;;;;;;;5070613;28;20032;-79
2020/12/13 10:15:31;;;;;;;14.07;3.88;;;;;;;;;;5076139;28;20035;-79
2020/12/13 10:17:56;;;;;;;12.57;3.13;;;;;;;;;;5073265;28;20536;-79
2020/12/13 10:20:22;;;;;;;11.00;2.83;;;;;;;;;;5082425;28;20089;-79
2020/12/13 10:22:47;;;;;;;12.98;3.28;;;;;;;;;;5068160;28;20074;-79
2020/12/13 10:25:12;;;;;;;5.22;2.13;;;;;;;;;;5058542;28;20056;-79
2020/12/13 10:27:37;;;;;;;9.18;2.63;;;;;;;;;;5063728;28;20023;-79
2020/12/13 10:30:02;;;;;;;11.68;2.45;;;;;;;;;;5075450;28;20027;-78
2020/12/13 10:32:28;;;;;;;12.75;2.50;;;;;;;;;;5063770;28;20021;-79
2020/12/13 10:34:53;;;;;;;10.55;2.47;;;;;;;;;;5067689;28;20024;-78
2020/12/13 10:37:18;;;;;;;9.02;2.40;;;;;;;;;;5070781;28;20149;-78
2020/12/13 10:39:43;;;;;;;12.70;2.42;;;;;;;;;;5067647;28;20017;-79
2020/12/13 10:42:08;;;;;;;6.20;1.85;;;;;;;;;;5070270;28;20025;-79
2020/12/13 10:44:33;;;;;;;10.05;2.15;;;;;;;;;;5070047;28;20100;-79
2020/12/13 10:46:59;;;;;;;17.70;3.10;;;;;;;;;;5067775;28;20048;-78
2020/12/13 10:49:24;;;;;;;15.32;3.08;;;;;;;;;;5074923;28;20115;-77
2020/12/13 10:51:49;;;;;;;11.63;3.13;;;;;;;;;;5072575;28;21137;-78
2020/12/13 10:54:14;;;;;;;5.35;1.60;;;;;;;;;;5076384;28;20081;-78
2020/12/13 10:56:40;;;;;;;9.05;2.58;;;;;;;;;;5074351;28;20468;-78
2020/12/13 10:59:05;;;;;;;12.68;3.00;;;;;;;;;;5079733;28;20051;-78
2020/12/13 11:01:30;;;;;;;11.43;2.97;;;;;;;;;;5092136;28;20020;-79
2020/12/13 11:03:57;;;;;;;9.23;2.72;;;;;;;;;;5072178;28;20076;-78
2020/12/13 11:06:22;;;;;;;10.18;2.60;;;;;;;;;;5071492;28;20031;-78
2020/12/13 11:08:47;;;;;;;11.20;3.22;;;;;;;;;;5071116;28;20024;-78
2020/12/13 11:11:13;;;;;;;11.18;2.72;;;;;;;;;;5064328;28;20108;-78
2020/12/13 11:13:38;;;;;;;14.88;2.90;;;;;;;;;;5066316;28;20023;-78
2020/12/13 11:16:03;;;;;;;15.23;2.63;;;;;;;;;;5072639;28;20067;-78
2020/12/13 11:18:33;;;;;;;9.60;3.00;;;;;;;;;;5070957;28;20046;-78
2020/12/13 11:20:59;;;;;;;13.40;3.47;;;;;;;;;;5074253;28;20521;-78
2020/12/13 11:23:24;;;;;;;7.70;2.47;;;;;;;;;;5073002;28;20020;-79
2020/12/13 11:25:49;;;;;;;16.60;2.72;;;;;;;;;;5079726;28;20027;-78
2020/12/13 11:28:14;;;;;;;15.38;3.03;;;;;;;;;;5069119;28;20028;-77
2020/12/13 11:30:40;;;;;;;6.15;1.67;;;;;;;;;;5069370;28;20517;-79
2020/12/13 11:33:05;;;;;;;4.85;1.58;;;;;;;;;;5070621;28;20538;-78
2020/12/13 11:35:30;;;;;;;16.00;2.63;;;;;;;;;;5072115;28;20092;-78
2020/12/13 11:37:55;;;;;;;15.50;2.90;;;;;;;;;;5066978;28;20029;-79
2020/12/13 11:40:20;;;;;;;14.45;2.55;;;;;;;;;;5067036;28;20444;-79
2020/12/13 11:42:46;;;;;;;10.85;2.95;;;;;;;;;;5060388;28;20025;-79
2020/12/13 11:45:11;;;;;;;14.63;3.00;;;;;;;;;;5057192;28;20488;-79
2020/12/13 11:47:38;;;;;;;10.00;2.97;;;;;;;;;;5063952;28;20040;-79
2020/12/13 11:50:04;;;;;;;14.80;3.15;;;;;;;;;;5059989;28;20028;-79
2020/12/13 11:52:29;;;;;;;17.42;3.35;;;;;;;;;;5088144;28;20017;-79
2020/12/13 11:54:54;;;;;;;11.00;2.85;;;;;;;;;;5060744;28;20021;-79
2020/12/13 11:57:21;;;;;;;12.32;2.10;;;;;;;;;;5069953;28;20380;-79
2020/12/13 11:59:46;;;;;;;10.88;3.13;;;;;;;;;;5072490;28;20028;-79
2020/12/13 12:02:11;;;;;;;8.27;2.55;;;;;;;;;;5071167;28;20028;-79
2020/12/13 12:04:36;;;;;;;15.18;2.95;;;;;;;;;;5069021;28;20025;-79
2020/12/13 12:07:02;;;;;;;10.48;2.78;;;;;;;;;;5064572;28;20065;-79
2020/12/13 12:09:27;;;;;;;11.77;2.60;;;;;;;;;;5068431;28;20383;-79
2020/12/13 12:11:52;;;;;;;12.25;2.92;;;;;;;;;;5064065;28;20032;-79
2020/12/13 12:14:18;;;;;;;10.43;1.90;;;;;;;;;;5075937;28;20054;-79
2020/12/13 12:16:43;;;;;;;10.48;2.38;;;;;;;;;;5061453;28;20021;-79
2020/12/13 12:19:09;;;;;;;11.70;2.05;;;;;;;;;;5074148;28;20054;-79
2020/12/13 12:21:36;;;;;;;10.63;2.35;;;;;;;;;;5063038;28;20021;-79
2020/12/13 12:24:02;;;;;;;10.27;2.63;;;;;;;;;;5059176;28;20106;-79
2020/12/13 12:26:33;;;;;;;7.63;2.40;;;;;;;;;;5069122;28;20067;-79
2020/12/13 12:28:59;;;;;;;9.13;2.17;;;;;;;;;;5058068;28;20061;-79
2020/12/13 12:31:25;;;;;;;13.75;2.22;;;;;;;;;;5077823;28;20087;-79
2020/12/13 12:33:50;;;;;;;4.78;1.00;;;;;;;;;;5069267;28;20071;-80
2020/12/13 12:36:20;;;;;;;10.88;3.05;;;;;;;;;;5108589;27;20020;-79
2020/12/13 12:38:46;;;;;;;3.67;0.82;;;;;;;;;;5106564;28;20012;-79
2020/12/13 12:41:12;;;;;;;9.50;1.25;;;;;;;;;;5065691;28;20132;-79
2020/12/13 12:43:37;;;;;;;4.30;0.90;;;;;;;;;;5073037;28;20020;-79
2020/12/13 12:46:02;;;;;;;13.00;2.67;;;;;;;;;;5076851;28;20016;-79
2020/12/13 12:48:28;;;;;;;23.60;4.65;;;;;;;;;;5068703;28;20020;-79
2020/12/13 12:50:53;;;;;;;3.63;0.98;;;;;;;;;;5068499;28;20024;-79
2020/12/13 12:53:18;;;;;;;9.32;3.33;;;;;;;;;;5072232;28;20017;-79
2020/12/13 12:55:43;;;;;;;10.43;2.20;;;;;;;;;;5075227;28;20029;-79
2020/12/13 12:58:10;;;;;;;12.38;2.63;;;;;;;;;;5075195;28;20021;-79
2020/12/13 13:00:45;;;;;;;3.70;1.40;;;;;;;;;;5069035;28;20047;-79
2020/12/13 13:03:10;;;;;;;12.52;0.98;;;;;;;;;;5076747;28;20076;-79
2020/12/13 13:06:03;;;;;;;3.53;1.08;;;;;;;;;;5068014;28;20082;-79
2020/12/13 13:08:56;;;;;;;;;;;;;;;;;;5061737;28;20019;-79
2020/12/13 13:11:22;;;;;;;5.03;1.80;;;;;;;;;;5063830;28;19964;-79
2020/12/13 13:13:48;;;;;;;8.45;2.15;;;;;;;;;;5060384;28;20092;-79
2020/12/13 13:16:15;;;;;;;12.90;2.70;;;;;;;;;;5061825;28;21871;-79
2020/12/13 13:18:40;;;;;;;11.13;2.10;;;;;;;;;;5073486;28;20016;-79
2020/12/13 13:21:05;;;;;;;10.73;2.50;;;;;;;;;;5064735;28;20104;-79
2020/12/13 13:23:30;;;;;;;7.22;1.90;;;;;;;;;;5057916;28;20070;-79
2020/12/13 13:25:56;;;;;;;2.97;1.27;;;;;;;;;;5064334;28;20025;-79
2020/12/13 13:28:21;;;;;;;6.05;2.20;;;;;;;;;;5062510;28;20029;-79
2020/12/13 13:30:47;;;;;;;8.43;2.25;;;;;;;;;;5061262;28;20052;-79
2020/12/13 13:33:12;;;;;;;6.30;2.53;;;;;;;;;;5070120;28;20407;-79
2020/12/13 13:35:37;;;;;;;6.50;1.70;;;;;;;;;;5062856;28;20029;-79
2020/12/13 13:38:03;;;;;;;9.98;2.10;;;;;;;;;;5076773;28;20027;-79
2020/12/13 13:40:28;;;;;;;1.27;0.75;;;;;;;;;;5083328;28;20021;-79
2020/12/13 13:42:57;;;;;;;11.20;3.03;;;;;;;;;;5078769;28;20030;-79
2020/12/13 13:45:35;;;;;;;4.00;1.15;;;;;;;;;;5069483;28;20073;-79
2020/12/13 13:50:41;;;;;;;14.15;4.63;;;;;;;;;;5064784;28;20028;-79
2020/12/13 13:53:07;;;;;;;9.38;3.50;;;;;;;;;;5067529;28;20020;-79
2020/12/13 13:55:34;;;;;;;13.07;4.10;;;;;;;;;;5081691;28;20108;-79
2020/12/13 13:58:02;;;;;;;11.85;3.20;;;;;;;;;;5063672;28;20439;-79
2020/12/13 14:00:27;;;;;;;11.90;2.42;;;;;;;;;;5072528;28;20020;-79
2020/12/13 14:02:53;;;;;;;11.95;2.47;;;;;;;;;;5076853;28;20016;-79
2020/12/13 14:05:19;;;;;;;6.15;1.80;;;;;;;;;;5071106;28;20096;-79
2020/12/13 14:10:15;;;;;;;11.85;2.80;;;;;;;;;;5072061;28;20023;-79
2020/12/13 14:12:40;;;;;;;10.45;2.40;;;;;;;;;;5072990;28;20091;-79
2020/12/13 14:15:05;;;;;;;8.85;2.65;;;;;;;;;;5061098;28;20084;-79
2020/12/13 14:17:31;;;;;;;8.80;2.63;;;;;;;;;;5074181;28;20078;-79
2020/12/13 14:19:56;;;;;;;12.70;2.60;;;;;;;;;;5056462;28;20731;-78
2020/12/13 14:22:21;;;;;;;10.30;2.45;;;;;;;;;;5069527;28;20380;-79
2020/12/13 14:24:46;;;;;;;12.90;2.40;;;;;;;;;;5073484;28;20028;-79
2020/12/13 14:27:12;;;;;;;8.73;2.38;;;;;;;;;;5069566;28;20111;-79
2020/12/13 14:29:37;;;;;;;14.00;2.95;;;;;;;;;;5072075;28;20032;-79
2020/12/13 14:32:02;;;;;;;8.07;2.67;;;;;;;;;;5063016;28;20051;-79
2020/12/13 14:34:27;;;;;;;16.05;2.88;;;;;;;;;;5098240;28;20021;-78
2020/12/13 14:36:53;;;;;;;8.45;2.20;;;;;;;;;;5070443;28;20031;-79
2020/12/13 14:39:18;;;;;;;5.82;2.10;;;;;;;;;;5069896;28;20587;-79
2020/12/13 14:41:53;;;;;;;4.75;1.90;;;;;;;;;;5070691;28;20460;-79